Time;durP1;ratioP1;P1;durP2;ratioP2;P2;SDS_P1;SDS_P2;PMS_P1;PMS_P2;Temp;Humidity;BMP_temperature;BMP_pressure;BME280_temperature;BME280_humidity;BME280_pressure;Samples;Min_cycle;Max_cycle;Signal;HPM_P1;HPM_P2
2022/04/26 03:37:05;;;;;;;2.78;2.08;;;7.20;99.90;;;;;;5036951;28;20763;-71
2022/04/26 03:39:34;;;;;;;5.90;2.70;;;7.20;99.90;;;;;;5022251;28;20081;-71
2022/04/26 03:42:02;;;;;;;8.35;2.50;;;7.20;99.90;;;;;;5021921;28;20037;-71
2022/04/26 03:44:28;;;;;;;16.88;3.78;;;7.20;99.90;;;;;;5037319;28;20096;-71
2022/04/26 03:46:54;;;;;;;6.10;1.65;;;7.20;99.90;;;;;;5037480;28;20037;-71
2022/04/26 03:49:23;;;;;;;15.98;3.90;;;7.20;99.90;;;;;;5041623;28;20293;-71
2022/04/26 03:51:52;;;;;;;11.65;2.65;;;7.20;99.90;;;;;;5044395;28;20064;-71
2022/04/26 03:54:21;;;;;;;3.28;1.33;;;7.20;99.90;;;;;;5061382;28;20506;-71
2022/04/26 03:56:47;;;;;;;3.05;1.98;;;7.20;99.90;;;;;;5061859;28;20044;-71
2022/04/26 03:59:13;;;;;;;2.70;2.22;;;7.20;99.90;;;;;;5058869;28;20101;-71
2022/04/26 04:01:39;;;;;;;3.17;2.90;;;7.20;99.90;;;;;;5060010;28;20075;-71
2022/04/26 04:04:05;;;;;;;1.50;1.40;;;7.10;99.90;;;;;;5061423;28;20044;-71
2022/04/26 04:06:31;;;;;;;4.22;3.15;;;7.10;99.90;;;;;;5061611;28;20056;-71
2022/04/26 04:08:56;;;;;;;1.88;1.77;;;7.10;99.90;;;;;;5061586;28;20040;-71
2022/04/26 04:11:22;;;;;;;4.15;2.10;;;7.10;99.90;;;;;;5061160;28;20032;-71
2022/04/26 04:13:48;;;;;;;1.95;1.77;;;7.10;99.90;;;;;;5059732;28;20076;-71
2022/04/26 04:16:13;;;;;;;4.60;3.03;;;7.10;99.90;;;;;;5061576;28;20036;-71
2022/04/26 04:21:23;;;;;;;3.83;2.38;;;7.10;99.90;;;;;;5060999;28;20054;-71
2022/04/26 04:23:48;;;;;;;4.88;2.47;;;7.10;99.90;;;;;;5048517;28;20906;-71
2022/04/26 04:26:14;;;;;;;4.45;2.47;;;7.10;99.90;;;;;;5040982;28;20079;-70
2022/04/26 04:28:40;;;;;;;5.68;2.63;;;7.10;99.90;;;;;;5039140;28;20453;-71
2022/04/26 04:31:05;;;;;;;2.15;1.92;;;7.10;99.90;;;;;;5039909;28;20863;-71
2022/04/26 04:33:31;;;;;;;3.33;2.88;;;7.10;99.90;;;;;;5059601;28;20036;-71
2022/04/26 04:35:57;;;;;;;18.73;3.25;;;7.00;99.90;;;;;;5040579;28;20041;-70
2022/04/26 04:38:22;;;;;;;6.25;2.80;;;7.10;99.90;;;;;;5040263;28;20045;-71
2022/04/26 04:40:48;;;;;;;3.10;2.47;;;7.00;99.90;;;;;;5041085;28;20442;-70
2022/04/26 04:43:13;;;;;;;2.50;2.30;;;7.10;99.90;;;;;;5040340;28;20456;-70
2022/04/26 04:45:40;;;;;;;3.67;2.78;;;7.10;99.90;;;;;;5039809;28;20453;-70
2022/04/26 04:48:06;;;;;;;5.05;3.42;;;7.00;99.90;;;;;;5040547;28;20124;-70
2022/04/26 04:50:33;;;;;;;7.18;2.15;;;7.10;99.90;;;;;;5048721;28;20056;-70
2022/04/26 04:53:01;;;;;;;5.65;2.72;;;7.10;99.90;;;;;;5061063;28;20371;-70
2022/04/26 04:55:27;;;;;;;5.68;3.25;;;7.10;99.90;;;;;;5061564;28;20040;-70
2022/04/26 04:57:53;;;;;;;10.20;3.33;;;7.10;99.90;;;;;;5058593;28;20128;-70
2022/04/26 05:00:18;;;;;;;4.18;3.20;;;7.10;99.90;;;;;;5059325;28;20453;-70
2022/04/26 05:02:44;;;;;;;12.77;2.97;;;7.10;99.90;;;;;;5061675;28;20044;-70
2022/04/26 05:05:10;;;;;;;2.78;1.90;;;7.10;99.90;;;;;;5064099;28;20502;-71
2022/04/26 05:07:36;;;;;;;2.75;1.98;;;7.10;99.90;;;;;;5064088;28;20483;-71
2022/04/26 05:10:03;;;;;;;5.70;2.88;;;7.10;99.90;;;;;;5062548;28;20764;-71
2022/04/26 05:12:29;;;;;;;2.47;2.28;;;7.10;99.90;;;;;;5062229;28;20123;-71
2022/04/26 05:14:54;;;;;;;10.63;3.10;;;7.10;99.90;;;;;;5064214;28;20128;-71
2022/04/26 05:17:20;;;;;;;2.00;1.85;;;7.10;99.90;;;;;;5063858;28;20230;-71
2022/04/26 05:19:45;;;;;;;4.60;3.15;;;7.20;99.90;;;;;;5061360;28;20036;-71
2022/04/26 05:22:11;;;;;;;4.30;2.65;;;7.20;99.90;;;;;;5054551;28;20102;-71
2022/04/26 05:24:53;;;;;;;8.98;3.35;;;7.20;99.90;;;;;;5064128;28;20113;-71
2022/04/26 05:27:20;;;;;;;9.20;2.78;;;7.20;99.90;;;;;;5062930;28;20094;-71
2022/04/26 05:29:46;;;;;;;3.78;2.47;;;7.20;99.90;;;;;;5063794;28;20123;-70
2022/04/26 05:32:11;;;;;;;2.55;2.35;;;7.20;99.90;;;;;;5054740;28;20148;-71
2022/04/26 05:34:37;;;;;;;5.00;3.05;;;7.30;99.90;;;;;;5044036;28;20045;-71
2022/04/26 05:37:05;;;;;;;3.25;2.95;;;7.30;99.90;;;;;;5058713;28;20167;-71
2022/04/26 05:39:31;;;;;;;6.18;3.03;;;7.40;99.90;;;;;;5055792;28;20123;-71
2022/04/26 05:41:56;;;;;;;2.72;2.53;;;7.40;99.90;;;;;;5063187;28;20115;-71
2022/04/26 05:44:22;;;;;;;2.47;2.25;;;7.40;99.90;;;;;;5063590;28;20044;-71
2022/04/26 05:46:48;;;;;;;2.42;2.22;;;7.40;99.90;;;;;;5048751;28;20487;-71
2022/04/26 05:49:13;;;;;;;2.83;2.03;;;7.40;99.90;;;;;;5041638;28;20041;-71
2022/04/26 05:51:39;;;;;;;4.70;2.97;;;7.40;99.90;;;;;;5043429;28;20044;-71
2022/04/26 05:54:04;;;;;;;3.65;2.78;;;7.50;99.90;;;;;;5042197;28;20410;-71
2022/04/26 05:56:30;;;;;;;2.30;2.20;;;7.50;99.90;;;;;;5043620;28;20507;-71
2022/04/26 05:58:55;;;;;;;9.68;2.95;;;7.60;99.90;;;;;;5042522;28;20045;-71
2022/04/26 06:01:20;;;;;;;2.50;2.30;;;7.60;99.90;;;;;;5063253;28;20049;-71
2022/04/26 06:03:46;;;;;;;2.65;1.88;;;7.60;99.90;;;;;;5061994;28;20045;-71
2022/04/26 06:06:12;;;;;;;2.15;1.95;;;7.70;99.90;;;;;;5044198;28;20084;-71
2022/04/26 06:08:37;;;;;;;3.38;2.90;;;7.70;99.90;;;;;;5061439;28;20082;-71
2022/04/26 06:11:03;;;;;;;4.35;2.83;;;7.70;99.90;;;;;;5063105;28;20044;-71
2022/04/26 06:13:28;;;;;;;5.80;3.25;;;7.80;99.90;;;;;;5062077;28;20044;-71
2022/04/26 06:15:54;;;;;;;2.95;2.15;;;7.90;99.90;;;;;;5062904;28;20040;-71
2022/04/26 06:18:20;;;;;;;3.17;2.33;;;7.90;99.90;;;;;;5044835;28;20068;-71
2022/04/26 06:20:45;;;;;;;1.65;1.55;;;8.00;99.90;;;;;;5042818;28;20218;-71
2022/04/26 06:23:11;;;;;;;2.40;2.20;;;8.00;99.90;;;;;;5058164;28;20053;-71
2022/04/26 06:25:36;;;;;;;12.18;4.40;;;8.10;99.90;;;;;;5042354;28;20048;-71
2022/04/26 06:28:04;;;;;;;2.85;2.05;;;8.10;99.90;;;;;;5041866;28;20049;-71
2022/04/26 06:30:29;;;;;;;3.47;2.85;;;8.20;99.90;;;;;;5042323;28;20041;-71
2022/04/26 06:32:55;;;;;;;6.45;2.60;;;8.20;99.90;;;;;;5058133;28;20110;-70
2022/04/26 06:35:20;;;;;;;4.32;2.30;;;8.20;99.90;;;;;;5054035;28;20119;-71
2022/04/26 06:37:46;;;;;;;8.02;1.92;;;8.20;99.90;;;;;;5057902;28;20476;-71
2022/04/26 06:40:11;;;;;;;7.10;2.38;;;8.20;99.90;;;;;;5042328;28;20037;-71
2022/04/26 06:42:37;;;;;;;4.97;2.05;;;8.20;99.90;;;;;;5041803;28;20333;-71
2022/04/26 06:45:03;;;;;;;2.33;2.03;;;8.20;99.90;;;;;;5052214;28;20831;-71
2022/04/26 06:47:28;;;;;;;2.00;1.85;;;8.20;99.90;;;;;;5057233;28;20367;-71
2022/04/26 06:49:54;;;;;;;6.15;2.20;;;8.30;99.90;;;;;;5062489;28;20161;-71
2022/04/26 06:52:19;;;;;;;3.13;2.92;;;8.30;99.90;;;;;;5062254;28;20428;-71
2022/04/26 06:54:45;;;;;;;3.15;2.10;;;8.20;99.90;;;;;;5051207;28;20037;-71
2022/04/26 06:57:11;;;;;;;1.52;1.40;;;8.20;99.90;;;;;;5052412;28;20049;-73
2022/04/26 06:59:39;;;;;;;2.05;1.67;;;8.30;99.90;;;;;;5041851;28;20051;-72
2022/04/26 07:02:05;;;;;;;5.97;2.70;;;8.30;99.90;;;;;;5041602;28;20048;-70
2022/04/26 07:04:31;;;;;;;4.30;2.33;;;8.30;99.90;;;;;;5041376;28;20057;-70
2022/04/26 07:06:56;;;;;;;3.40;2.78;;;8.40;99.90;;;;;;5042629;28;20045;-71
2022/04/26 07:09:22;;;;;;;10.25;2.17;;;8.40;99.90;;;;;;5048392;28;20043;-70
2022/04/26 07:11:48;;;;;;;4.10;2.03;;;8.50;99.90;;;;;;5042950;28;20085;-70
2022/04/26 07:14:14;;;;;;;1.90;1.80;;;8.60;99.90;;;;;;5059784;28;20041;-70
2022/04/26 07:16:39;;;;;;;5.30;2.00;;;8.70;99.90;;;;;;5046731;28;20033;-70
2022/04/26 07:19:05;;;;;;;3.88;2.45;;;8.70;99.90;;;;;;5041243;28;20041;-71
2022/04/26 07:21:31;;;;;;;5.80;2.70;;;8.70;99.90;;;;;;5041643;28;20566;-70
2022/04/26 07:23:56;;;;;;;1.63;1.52;;;8.70;99.90;;;;;;5031819;28;20053;-70
2022/04/26 07:26:22;;;;;;;7.30;2.35;;;8.80;99.90;;;;;;5039392;28;20415;-70
2022/04/26 07:28:47;;;;;;;2.20;1.95;;;8.80;99.90;;;;;;5041355;28;20469;-70
2022/04/26 07:31:14;;;;;;;4.50;1.95;;;8.90;99.90;;;;;;5040955;28;20548;-70
2022/04/26 07:36:23;;;;;;;1.70;1.60;;;9.00;99.90;;;;;;5025561;28;20064;-70
2022/04/26 07:38:50;;;;;;;3.78;1.80;;;9.10;99.90;;;;;;5039969;28;20045;-70
2022/04/26 07:41:16;;;;;;;2.75;1.30;;;9.10;99.90;;;;;;5041318;28;20040;-70
2022/04/26 07:43:41;;;;;;;0.70;0.70;;;9.20;99.90;;;;;;5056233;28;20195;-71
2022/04/26 07:46:08;;;;;;;1.70;1.60;;;9.20;99.90;;;;;;5041201;28;20152;-71
2022/04/26 07:48:36;;;;;;;2.50;2.13;;;9.20;99.90;;;;;;5041399;28;20052;-71
2022/04/26 07:51:04;;;;;;;1.98;1.40;;;9.20;99.90;;;;;;5046151;28;20045;-71
2022/04/26 07:53:30;;;;;;;2.70;1.42;;;9.20;99.90;;;;;;5040630;28;20106;-71
2022/04/26 07:55:55;;;;;;;2.45;1.50;;;9.20;99.90;;;;;;5034536;28;20040;-71
2022/04/26 07:58:21;;;;;;;3.05;2.25;;;9.20;99.90;;;;;;5060849;28;20619;-71
2022/04/26 08:00:46;;;;;;;3.38;2.17;;;9.30;99.90;;;;;;5040646;28;20076;-71
2022/04/26 08:03:13;;;;;;;1.45;1.35;;;9.30;99.90;;;;;;5057039;28;20140;-71
2022/04/26 08:05:38;;;;;;;1.52;1.27;;;9.30;99.90;;;;;;5040006;28;20057;-71
2022/04/26 08:08:04;;;;;;;1.25;1.15;;;9.30;99.90;;;;;;5038594;28;20060;-71
2022/04/26 08:10:30;;;;;;;5.22;2.58;;;9.30;99.90;;;;;;5045498;28;20044;-71
2022/04/26 08:12:56;;;;;;;1.70;1.48;;;9.40;99.90;;;;;;5039943;28;20091;-71
2022/04/26 08:15:21;;;;;;;1.77;1.38;;;9.40;99.90;;;;;;5049359;28;20040;-72
2022/04/26 08:17:48;;;;;;;3.63;1.65;;;9.40;99.90;;;;;;5040908;28;20073;-72
2022/04/26 08:20:14;;;;;;;6.15;2.00;;;9.40;99.90;;;;;;5039393;28;20090;-72
2022/04/26 08:22:40;;;;;;;2.58;2.38;;;9.40;99.90;;;;;;5040018;28;20052;-71
2022/04/26 08:27:50;;;;;;;1.92;1.60;;;9.40;99.90;;;;;;5037671;28;20080;-71
2022/04/26 08:30:16;;;;;;;1.40;1.30;;;9.40;99.90;;;;;;5040788;28;20075;-71
2022/04/26 08:32:44;;;;;;;4.25;2.38;;;9.40;99.90;;;;;;5039447;28;20044;-73
2022/04/26 08:35:12;;;;;;;4.70;2.05;;;9.40;99.90;;;;;;5036443;28;20544;-71
2022/04/26 08:37:38;;;;;;;2.72;2.40;;;9.40;99.90;;;;;;5040146;28;20103;-72
2022/04/26 08:40:06;;;;;;;6.05;2.22;;;9.40;99.90;;;;;;5055116;28;20040;-72
2022/04/26 08:42:44;;;;;;;1.58;1.48;;;9.40;99.90;;;;;;5039640;28;20566;-72
2022/04/26 08:45:19;;;;;;;1.33;1.27;;;9.50;99.90;;;;;;5039989;28;20502;-72
2022/04/26 08:53:19;;;;;;;1.55;1.45;;;9.50;99.90;;;;;;5041326;28;20081;-72
2022/04/26 08:55:51;;;;;;;1.83;1.48;;;9.60;99.90;;;;;;5041773;28;20041;-72
2022/04/26 08:58:21;;;;;;;2.83;2.43;;;9.60;99.90;;;;;;5036886;28;20103;-72
2022/04/26 09:01:15;;;;;;;1.83;1.70;;;9.70;99.90;;;;;;5039554;28;20299;-73
2022/04/26 09:04:02;;;;;;;1.33;1.23;;;9.70;99.90;;;;;;5037886;28;20077;-75
2022/04/26 09:06:36;;;;;;;1.83;1.40;;;9.70;99.90;;;;;;5040443;28;20045;-72
2022/04/26 09:09:12;;;;;;;1.33;1.30;;;9.80;99.90;;;;;;5042115;28;20135;-72
2022/04/26 09:11:38;;;;;;;5.80;2.25;;;9.80;99.90;;;;;;5039349;28;20492;-77
2022/04/26 09:14:08;;;;;;;2.65;1.67;;;9.80;99.90;;;;;;5040299;28;20037;-75
2022/04/26 09:16:34;;;;;;;3.72;1.40;;;9.90;99.90;;;;;;5039116;28;20037;-77
2022/04/26 09:19:05;;;;;;;3.03;1.90;;;9.90;99.90;;;;;;5040198;28;20127;-75
2022/04/26 09:21:32;;;;;;;2.05;1.85;;;9.90;99.90;;;;;;5042942;28;20041;-75
2022/04/26 09:24:06;;;;;;;1.42;1.10;;;10.00;99.90;;;;;;5041338;28;20041;-75
2022/04/26 09:26:34;;;;;;;1.38;1.27;;;10.00;99.90;;;;;;5022312;28;20044;-75
2022/04/26 09:28:59;;;;;;;4.40;2.30;;;10.00;99.90;;;;;;5039239;28;20126;-75
2022/04/26 09:31:30;;;;;;;1.60;1.27;;;10.10;99.90;;;;;;5039052;28;20518;-80
2022/04/26 09:34:04;;;;;;;1.38;1.27;;;10.10;99.90;;;;;;5042453;28;20053;-84
2022/04/26 09:36:32;;;;;;;1.35;1.25;;;10.10;99.90;;;;;;5042165;28;20037;-77
2022/04/26 09:38:59;;;;;;;4.78;1.00;;;10.10;99.90;;;;;;5040475;28;20076;-76
2022/04/26 09:41:27;;;;;;;4.82;1.88;;;10.10;99.90;;;;;;5038561;28;20041;-77
2022/04/26 09:44:03;;;;;;;1.67;1.58;;;10.20;99.90;;;;;;5039132;28;20056;-76
2022/04/26 09:46:50;;;;;;;6.65;1.35;;;10.20;99.90;;;;;;5048225;28;20055;-75
2022/04/26 09:49:19;;;;;;;1.55;1.45;;;10.20;99.90;;;;;;5039625;28;20045;-81
2022/04/26 09:51:46;;;;;;;3.70;1.70;;;10.30;99.90;;;;;;5040654;28;20498;-75
2022/04/26 09:54:15;;;;;;;3.92;1.15;;;10.30;99.90;;;;;;5040295;28;20037;-76
2022/04/26 09:56:46;;;;;;;2.03;1.42;;;10.30;99.90;;;;;;5037693;28;20293;-75
2022/04/26 09:59:29;;;;;;;1.92;1.13;;;10.30;99.90;;;;;;5036926;28;20037;-76
2022/04/26 10:01:57;;;;;;;3.95;1.63;;;10.30;99.90;;;;;;5027862;28;20038;-76
2022/04/26 10:04:25;;;;;;;2.13;1.92;;;10.40;99.90;;;;;;5037822;28;20037;-75
2022/04/26 10:06:52;;;;;;;7.35;2.28;;;10.40;99.90;;;;;;5041811;28;20113;-75
2022/04/26 10:09:19;;;;;;;1.27;1.20;;;10.40;99.90;;;;;;5043728;28;20037;-75
2022/04/26 10:11:44;;;;;;;1.65;1.55;;;10.50;99.90;;;;;;5040008;28;20041;-75
2022/04/26 10:14:12;;;;;;;1.15;1.15;;;10.40;99.90;;;;;;5043933;28;20590;-75
2022/04/26 10:16:38;;;;;;;7.18;1.23;;;10.50;99.90;;;;;;5055738;28;20041;-75
2022/04/26 10:19:09;;;;;;;3.00;1.67;;;10.50;99.90;;;;;;5056468;28;20043;-76
2022/04/26 10:21:41;;;;;;;9.65;1.73;;;10.50;99.90;;;;;;5029076;28;20044;-75
2022/04/26 10:24:20;;;;;;;1.73;1.63;;;10.50;99.90;;;;;;5041479;28;20060;-76
2022/04/26 10:26:48;;;;;;;2.72;1.88;;;10.50;99.90;;;;;;5047776;28;20098;-75
2022/04/26 10:29:19;;;;;;;2.38;1.48;;;10.60;99.90;;;;;;5037554;28;20038;-84
2022/04/26 10:31:50;;;;;;;6.43;1.52;;;10.60;99.90;;;;;;5042455;28;20047;-76
2022/04/26 10:34:26;;;;;;;1.77;1.45;;;10.70;99.90;;;;;;5040812;28;20047;-78
2022/04/26 10:37:01;;;;;;;1.85;1.45;;;10.60;99.90;;;;;;5041189;28;20056;-75
2022/04/26 10:39:32;;;;;;;3.80;1.50;;;10.60;99.90;;;;;;5040900;28;20105;-78
2022/04/26 10:41:59;;;;;;;2.97;1.38;;;10.60;99.90;;;;;;5036923;28;20182;-77
2022/04/26 10:44:31;;;;;;;3.65;1.42;;;10.60;99.90;;;;;;5040886;28;20045;-78
2022/04/26 10:47:02;;;;;;;1.80;1.70;;;10.60;99.90;;;;;;5040130;28;20113;-78
2022/04/26 10:49:43;;;;;;;5.75;1.58;;;10.60;99.90;;;;;;5041241;28;20045;-78
2022/04/26 10:52:14;;;;;;;2.30;1.63;;;10.60;99.90;;;;;;5038054;28;20744;-79
2022/04/26 10:54:46;;;;;;;1.58;1.48;;;10.60;99.90;;;;;;5040526;28;20474;-78
2022/04/26 10:57:19;;;;;;;1.60;1.33;;;10.60;99.90;;;;;;5039001;28;20650;-79
2022/04/26 10:59:47;;;;;;;1.67;1.50;;;10.70;99.90;;;;;;5041897;28;20049;-79
2022/04/26 11:02:16;;;;;;;1.90;1.67;;;10.70;99.90;;;;;;5040696;28;20048;-80
2022/04/26 11:04:41;;;;;;;1.23;1.05;;;10.70;99.90;;;;;;5041493;28;20059;-80
2022/04/26 11:07:11;;;;;;;8.27;1.48;;;10.80;99.90;;;;;;5039904;28;20040;-79
2022/04/26 11:09:49;;;;;;;1.60;1.45;;;10.80;99.90;;;;;;5057063;28;20091;-79
2022/04/26 11:12:17;;;;;;;5.47;1.75;;;10.80;99.90;;;;;;5039213;28;20064;-77
2022/04/26 11:14:44;;;;;;;2.38;1.63;;;10.80;99.90;;;;;;5020099;28;20072;-79
2022/04/26 11:17:09;;;;;;;1.23;1.13;;;10.80;99.90;;;;;;5037962;28;20515;-80
2022/04/26 11:19:46;;;;;;;1.15;1.15;;;10.80;99.90;;;;;;5040278;28;20057;-80
2022/04/26 11:22:15;;;;;;;1.27;1.00;;;10.80;99.90;;;;;;5032087;28;20049;-80
2022/04/26 11:30:30;;;;;;;4.20;1.58;;;10.90;99.90;;;;;;5044324;28;20048;-78
2022/04/26 11:33:01;;;;;;;2.60;1.73;;;11.00;99.90;;;;;;5037454;28;20045;-80
2022/04/26 11:35:27;;;;;;;2.08;1.70;;;11.00;99.90;;;;;;5041330;28;20041;-79
2022/04/26 11:37:56;;;;;;;4.78;1.58;;;11.00;99.90;;;;;;5039546;28;20045;-79
2022/04/26 11:40:23;;;;;;;2.30;2.10;;;11.00;99.90;;;;;;5032799;28;20079;-82
2022/04/26 11:42:50;;;;;;;2.35;2.15;;;11.10;99.90;;;;;;5040451;28;20049;-85
2022/04/26 11:45:16;;;;;;;1.77;1.45;;;11.10;99.90;;;;;;5039249;28;20036;-85
2022/04/26 11:47:43;;;;;;;1.20;1.20;;;11.20;99.90;;;;;;5043089;28;20048;-87
2022/04/26 11:50:29;;;;;;;1.98;1.33;;;11.10;99.90;;;;;;5041125;28;20550;-84
2022/04/26 11:53:06;;;;;;;1.77;1.67;;;11.10;99.90;;;;;;5046981;28;20041;-84
2022/04/26 11:55:43;;;;;;;1.45;1.35;;;11.10;99.90;;;;;;5037666;28;20488;-86
2022/04/26 11:58:40;;;;;;;4.13;1.45;;;11.20;99.90;;;;;;5031988;28;20037;-83
2022/04/26 12:01:13;;;;;;;1.52;1.45;;;11.20;99.90;;;;;;5021462;28;20064;-85
2022/04/26 12:03:46;;;;;;;1.67;1.58;;;11.20;99.90;;;;;;5037230;28;20080;-86
2022/04/26 12:06:13;;;;;;;3.03;1.40;;;11.20;99.90;;;;;;5033805;28;20511;-88
2022/04/26 12:08:43;;;;;;;2.40;1.52;;;11.20;99.90;;;;;;5034519;28;20648;-81
2022/04/26 12:11:29;;;;;;;1.70;1.08;;;11.20;99.90;;;;;;5031872;28;20084;-82
2022/04/26 12:14:02;;;;;;;1.35;1.25;;;11.20;99.90;;;;;;5008482;28;20048;-83
2022/04/26 12:16:31;;;;;;;1.95;1.85;;;11.20;99.90;;;;;;5042212;28;20557;-85
2022/04/26 12:19:01;;;;;;;1.38;1.00;;;11.30;99.90;;;;;;5020260;28;20072;-82
2022/04/26 12:21:27;;;;;;;6.82;1.55;;;11.30;99.90;;;;;;5026169;28;20070;-83
2022/04/26 12:24:16;;;;;;;1.50;1.40;;;11.30;99.90;;;;;;5025862;28;20116;-83
2022/04/26 12:27:02;;;;;;;1.35;1.20;;;11.30;99.90;;;;;;5021539;28;20091;-82
2022/04/26 12:29:42;;;;;;;1.40;1.30;;;11.30;99.90;;;;;;5045611;28;20044;-82
2022/04/26 12:32:15;;;;;;;1.05;1.05;;;11.30;99.90;;;;;;5044639;28;20120;-83
2022/04/26 12:34:57;;;;;;;1.55;1.45;;;11.30;99.90;;;;;;5042443;28;20613;-84
2022/04/26 12:37:27;;;;;;;1.73;1.63;;;11.30;99.90;;;;;;5024556;28;20041;-83
2022/04/26 12:40:01;;;;;;;1.63;1.52;;;11.30;99.90;;;;;;5047869;28;20060;-84
2022/04/26 12:42:26;;;;;;;7.35;1.38;;;11.40;99.90;;;;;;5039704;28;20049;-83
2022/04/26 12:44:55;;;;;;;3.28;1.85;;;11.40;99.90;;;;;;5043495;28;20041;-83
2022/04/26 12:50:31;;;;;;;1.48;1.38;;;11.40;99.90;;;;;;5040821;28;20052;-84
2022/04/26 12:53:19;;;;;;;2.35;2.00;;;11.40;99.90;;;;;;5046463;28;20053;-84
2022/04/26 12:55:51;;;;;;;5.47;2.45;;;11.40;99.90;;;;;;5032355;28;20045;-83
2022/04/26 12:58:32;;;;;;;1.25;1.17;;;11.40;99.90;;;;;;5043523;28;20458;-84
2022/04/26 13:00:59;;;;;;;2.08;1.13;;;11.40;99.90;;;;;;5030005;28;20057;-84
2022/04/26 13:03:24;;;;;;;1.20;1.10;;;11.40;99.90;;;;;;5039036;28;20053;-83
2022/04/26 13:05:54;;;;;;;1.15;1.15;;;11.40;99.90;;;;;;5020877;28;20763;-84
2022/04/26 13:08:21;;;;;;;1.73;1.63;;;11.30;99.90;;;;;;5042229;28;20084;-84
2022/04/26 13:10:47;;;;;;;0.82;0.82;;;11.30;99.90;;;;;;5043069;28;20037;-84
2022/04/26 13:13:14;;;;;;;2.28;1.67;;;11.30;99.90;;;;;;5044108;28;20045;-84
2022/04/26 13:15:41;;;;;;;1.45;1.35;;;11.40;99.90;;;;;;5042203;28;20033;-95
2022/04/26 13:18:08;;;;;;;1.45;1.35;;;11.40;99.90;;;;;;5035475;28;20114;-88
2022/04/26 13:20:34;;;;;;;1.33;1.23;;;11.40;99.90;;;;;;5041957;28;20044;-88
2022/04/26 13:23:00;;;;;;;3.92;1.42;;;11.50;99.90;;;;;;5041881;28;20178;-87
2022/04/26 13:25:25;;;;;;;0.98;0.98;;;11.50;99.90;;;;;;5070501;28;20041;-86
2022/04/26 13:27:51;;;;;;;1.92;1.30;;;11.50;99.90;;;;;;5039536;28;20040;-88
2022/04/26 13:30:18;;;;;;;1.58;0.98;;;11.50;99.90;;;;;;5040028;28;20479;-88
2022/04/26 13:32:47;;;;;;;2.17;1.42;;;11.60;99.90;;;;;;5041040;28;20053;-89
2022/04/26 13:35:13;;;;;;;1.30;1.20;;;11.70;99.90;;;;;;5041826;28;20059;-88
2022/04/26 13:37:39;;;;;;;2.40;1.30;;;11.80;99.90;;;;;;5042095;28;20049;-88
2022/04/26 13:40:08;;;;;;;3.45;1.38;;;11.80;99.90;;;;;;5040405;28;20037;-87
2022/04/26 13:42:35;;;;;;;2.05;1.40;;;11.80;99.90;;;;;;5042922;28;20083;-85
2022/04/26 13:45:01;;;;;;;1.63;1.52;;;11.80;99.90;;;;;;5037786;28;20094;-86
2022/04/26 13:47:28;;;;;;;1.27;1.17;;;11.80;99.90;;;;;;5043167;28;20064;-85
2022/04/26 13:49:53;;;;;;;2.15;1.25;;;11.70;99.90;;;;;;5041047;28;20110;-86
2022/04/26 13:52:20;;;;;;;2.92;1.75;;;11.70;99.90;;;;;;5040896;28;20072;-86
2022/04/26 13:54:46;;;;;;;4.13;2.35;;;11.70;99.90;;;;;;5041520;28;20123;-86
2022/04/26 13:57:12;;;;;;;1.75;1.65;;;11.70;99.90;;;;;;5023328;28;20087;-86
2022/04/26 13:59:38;;;;;;;2.15;1.48;;;11.70;99.90;;;;;;5038857;28;20424;-84
2022/04/26 14:02:05;;;;;;;7.68;2.05;;;11.70;99.90;;;;;;5041457;28;20033;-85
2022/04/26 14:04:31;;;;;;;3.58;1.95;;;11.70;99.90;;;;;;5040230;28;20724;-87
2022/04/26 14:06:57;;;;;;;2.50;1.88;;;11.60;99.90;;;;;;5023444;28;20141;-86
2022/04/26 14:09:22;;;;;;;1.60;1.50;;;11.60;99.90;;;;;;5024134;28;20410;-87
2022/04/26 14:11:51;;;;;;;1.55;1.42;;;11.60;99.90;;;;;;5039645;28;20037;-87
2022/04/26 14:22:41;;;;;;;1.00;1.00;;;11.70;99.90;;;;;;5039799;28;20350;-87
2022/04/26 14:25:11;;;;;;;4.32;1.65;;;11.80;99.90;;;;;;5041114;28;20045;-86
2022/04/26 14:27:38;;;;;;;1.88;1.50;;;11.70;99.90;;;;;;5019712;28;20049;-87
2022/04/26 14:30:06;;;;;;;3.10;1.42;;;11.80;99.90;;;;;;5039910;28;20115;-86
2022/04/26 14:32:31;;;;;;;1.17;1.17;;;11.80;99.90;;;;;;5041509;28;20044;-86
2022/04/26 14:34:57;;;;;;;1.33;1.23;;;11.70;99.90;;;;;;5041161;28;20037;-86
2022/04/26 14:37:22;;;;;;;5.90;1.05;;;11.70;99.90;;;;;;5040530;28;20151;-87
2022/04/26 14:39:49;;;;;;;1.35;1.05;;;11.60;99.90;;;;;;5038963;28;20053;-87
2022/04/26 14:42:15;;;;;;;1.50;1.45;;;11.60;99.90;;;;;;5039648;28;20049;-86
2022/04/26 14:44:41;;;;;;;0.85;0.85;;;11.60;99.90;;;;;;5039731;28;20041;-86
2022/04/26 14:47:07;;;;;;;0.95;0.95;;;11.60;99.90;;;;;;5039901;28;20043;-88
2022/04/26 14:49:34;;;;;;;1.42;1.33;;;11.60;99.90;;;;;;5038978;28;20173;-88
2022/04/26 14:52:00;;;;;;;2.95;1.90;;;11.60;99.90;;;;;;5040990;28;20033;-87
2022/04/26 14:54:25;;;;;;;1.08;1.08;;;11.60;99.90;;;;;;5042511;28;20037;-86
2022/04/26 14:56:51;;;;;;;2.95;1.50;;;11.60;99.90;;;;;;5039863;28;20041;-88
2022/04/26 14:59:19;;;;;;;2.40;1.33;;;11.50;99.90;;;;;;5039680;28;20037;-89
2022/04/26 15:01:46;;;;;;;0.93;0.88;;;11.50;99.90;;;;;;5021658;28;20041;-87
2022/04/26 15:04:12;;;;;;;1.00;1.00;;;11.50;99.90;;;;;;5039551;28;20084;-89
2022/04/26 15:06:38;;;;;;;1.50;1.40;;;11.50;99.90;;;;;;5038965;28;20049;-87
2022/04/26 15:17:19;;;;;;;1.05;1.05;;;11.40;99.90;;;;;;5038730;28;20134;-89
2022/04/26 15:19:48;;;;;;;1.35;1.25;;;11.50;99.90;;;;;;5023998;28;20865;-90
2022/04/26 15:22:13;;;;;;;2.97;1.25;;;11.50;99.90;;;;;;5023242;28;20052;-87
2022/04/26 15:24:40;;;;;;;1.13;1.02;;;11.60;99.90;;;;;;5038123;28;20044;-91
2022/04/26 15:27:06;;;;;;;0.63;0.63;;;11.60;99.90;;;;;;5035696;28;20040;-89
2022/04/26 15:29:32;;;;;;;2.13;1.25;;;11.60;99.90;;;;;;5040220;28;20052;-86
2022/04/26 15:31:57;;;;;;;1.13;1.05;;;11.60;99.90;;;;;;5042203;28;20041;-86
2022/04/26 15:34:23;;;;;;;3.15;1.35;;;11.60;99.90;;;;;;5039549;28;20479;-86
2022/04/26 15:36:48;;;;;;;2.05;1.05;;;11.60;99.90;;;;;;5036381;28;20052;-90
2022/04/26 15:39:14;;;;;;;17.25;1.77;;;11.60;99.90;;;;;;5040899;28;20044;-88
2022/04/26 15:41:40;;;;;;;1.20;1.10;;;11.60;99.90;;;;;;5039359;28;20175;-88
2022/04/26 15:44:05;;;;;;;6.18;1.17;;;11.60;99.90;;;;;;5020406;28;20036;-88
2022/04/26 15:46:31;;;;;;;2.15;0.85;;;11.50;99.90;;;;;;5039774;28;20048;-88
2022/04/26 15:48:57;;;;;;;1.42;1.23;;;11.50;99.90;;;;;;5048002;28;20041;-88
2022/04/26 15:51:26;;;;;;;3.53;1.17;;;11.50;99.90;;;;;;5031020;28;20045;-88
2022/04/26 15:53:52;;;;;;;1.15;1.05;;;11.50;99.90;;;;;;5040632;28;20288;-88
2022/04/26 15:56:17;;;;;;;0.88;0.88;;;11.40;99.90;;;;;;5038289;28;20041;-95
2022/04/26 15:58:43;;;;;;;1.65;0.70;;;11.40;99.90;;;;;;5022583;28;20047;-84
2022/04/26 16:01:09;;;;;;;1.58;1.48;;;11.40;99.90;;;;;;5041291;28;20049;-80
2022/04/26 16:03:35;;;;;;;1.67;1.58;;;11.30;99.90;;;;;;5034543;28;20072;-81
2022/04/26 16:06:00;;;;;;;1.77;1.33;;;11.30;99.90;;;;;;5032309;28;20049;-78
2022/04/26 16:08:26;;;;;;;1.40;1.23;;;11.30;99.90;;;;;;5037527;28;20048;-80
2022/04/26 16:21:52;;;;;;;3.75;1.77;;;11.30;99.90;;;;;;5040597;28;20502;-80
2022/04/26 16:24:17;;;;;;;1.55;1.00;;;11.40;99.90;;;;;;5039421;28;20041;-81
2022/04/26 16:26:43;;;;;;;5.75;1.75;;;11.40;99.90;;;;;;5039033;28;20037;-81
2022/04/26 16:29:10;;;;;;;1.98;1.33;;;11.40;99.90;;;;;;5037483;28;20037;-80
2022/04/26 16:31:38;;;;;;;1.52;1.42;;;11.40;99.90;;;;;;5039999;28;20601;-81
2022/04/26 16:34:04;;;;;;;3.08;1.50;;;11.50;99.90;;;;;;5038875;28;20077;-82
2022/04/26 16:36:30;;;;;;;0.82;0.82;;;11.50;99.90;;;;;;5039141;28;20087;-82
2022/04/26 16:38:57;;;;;;;0.82;0.82;;;11.50;99.90;;;;;;5039502;28;20513;-74
2022/04/26 16:41:23;;;;;;;10.45;1.77;;;11.50;99.90;;;;;;5039124;28;20040;-73
2022/04/26 16:43:49;;;;;;;3.22;0.85;;;11.50;99.90;;;;;;5038998;28;20049;-74
2022/04/26 16:46:19;;;;;;;1.70;1.30;;;11.50;99.90;;;;;;5038286;28;20135;-74
2022/04/26 16:48:48;;;;;;;1.13;1.02;;;11.60;99.90;;;;;;5033727;28;20090;-74
2022/04/26 16:51:15;;;;;;;4.32;1.13;;;11.50;99.90;;;;;;5038901;28;20092;-74
2022/04/26 16:53:42;;;;;;;0.70;0.70;;;11.50;99.90;;;;;;5036114;28;20069;-74
2022/04/26 16:56:08;;;;;;;2.30;1.60;;;11.50;99.90;;;;;;5037296;28;20079;-74
2022/04/26 16:58:34;;;;;;;1.63;1.52;;;11.40;99.90;;;;;;5040600;28;20503;-75
2022/04/26 17:00:59;;;;;;;1.15;1.15;;;11.40;99.90;;;;;;5037699;28;20526;-74
2022/04/26 17:03:25;;;;;;;1.50;1.20;;;11.30;99.90;;;;;;5042816;28;20429;-81
2022/04/26 17:05:51;;;;;;;5.75;1.42;;;11.20;99.90;;;;;;5035293;28;20560;-80
2022/04/26 17:08:17;;;;;;;1.63;1.10;;;11.20;99.90;;;;;;5036947;28;20049;-80
2022/04/26 17:10:45;;;;;;;3.50;0.90;;;11.10;99.90;;;;;;5022015;28;20084;-84
2022/04/26 17:13:12;;;;;;;1.45;1.35;;;11.10;99.90;;;;;;5041048;28;20129;-95
2022/04/26 17:15:38;;;;;;;5.28;1.38;;;11.10;99.90;;;;;;5042813;28;20711;-78
2022/04/26 17:18:04;;;;;;;2.30;1.15;;;11.00;99.90;;;;;;5042222;28;20045;-79
2022/04/26 17:20:33;;;;;;;2.05;1.30;;;11.00;99.90;;;;;;5026197;28;20037;-78